Time;durP1;ratioP1;P1;durP2;ratioP2;P2;SDS_P1;SDS_P2;PMS_P1;PMS_P2;Temp;Humidity;BMP_temperature;BMP_pressure;BME280_temperature;BME280_humidity;BME280_pressure;Samples;Min_cycle;Max_cycle;Signal;HPM_P1;HPM_P2
2023/07/11 00:01:49;;;;;;;4.57;1.10;;;18.70;99.90;;;;;;12492357;28;20617;-34
2023/07/11 00:07:51;;;;;;;5.25;0.95;;;18.50;99.90;;;;;;12536434;28;20053;-35
2023/07/11 00:13:55;;;;;;;5.40;1.45;;;18.40;99.90;;;;;;12548617;28;20049;-34
2023/07/11 00:19:58;;;;;;;4.57;1.10;;;18.40;99.90;;;;;;12532433;28;20440;-35
2023/07/11 00:26:01;;;;;;;3.50;1.13;;;18.40;99.90;;;;;;12518162;28;20774;-33
2023/07/11 00:32:03;;;;;;;4.50;1.30;;;18.30;99.90;;;;;;12538918;28;21039;-34
2023/07/11 00:38:06;;;;;;;10.18;1.80;;;18.40;99.90;;;;;;12535978;28;20060;-35
2023/07/11 00:44:13;;;;;;;4.18;1.25;;;18.50;99.90;;;;;;12529324;28;20076;-34
2023/07/11 00:50:15;;;;;;;5.95;1.05;;;18.50;99.90;;;;;;12540330;28;20095;-34
2023/07/11 00:56:24;;;;;;;4.05;1.25;;;18.50;99.90;;;;;;12522121;28;20050;-34
2023/07/11 01:02:28;;;;;;;3.80;1.20;;;18.50;99.90;;;;;;12520155;28;20060;-34
2023/07/11 01:08:30;;;;;;;;;;;18.50;99.90;;;;;;12501441;28;20050;-34
2023/07/11 01:14:32;;;;;;;3.85;1.40;;;18.40;99.90;;;;;;12532627;28;19925;-34
2023/07/11 01:20:35;;;;;;;4.97;1.75;;;18.30;99.90;;;;;;12529897;28;20055;-35
2023/07/11 01:26:37;;;;;;;6.32;1.33;;;18.00;99.90;;;;;;12506106;28;20053;-34
2023/07/11 01:32:39;;;;;;;4.22;1.40;;;18.10;99.90;;;;;;12509482;28;20073;-34
2023/07/11 01:38:41;;;;;;;5.40;1.65;;;18.30;99.90;;;;;;12499086;28;20053;-35
2023/07/11 01:44:43;;;;;;;7.38;2.03;;;18.30;99.90;;;;;;12505991;28;20079;-33
2023/07/11 01:50:44;;;;;;;5.47;1.52;;;18.10;99.90;;;;;;12511646;28;20068;-35
2023/07/11 01:56:46;;;;;;;3.53;1.38;;;18.10;99.90;;;;;;12524697;28;20772;-34
2023/07/11 02:02:48;;;;;;;5.45;1.85;;;18.00;99.90;;;;;;12503764;28;20045;-34
2023/07/11 02:08:51;;;;;;;6.95;1.70;;;17.80;99.90;;;;;;12502613;28;20053;-34
2023/07/11 02:14:53;;;;;;;5.60;1.83;;;17.80;99.90;;;;;;12490466;28;20049;-35
2023/07/11 02:20:56;;;;;;;6.35;1.58;;;17.50;99.90;;;;;;12479052;28;20057;-33
2023/07/11 02:26:58;;;;;;;3.95;1.60;;;17.40;99.90;;;;;;12482175;28;20054;-34
2023/07/11 02:33:00;;;;;;;6.38;2.28;;;17.40;99.90;;;;;;12450529;28;20097;-34
2023/07/11 02:39:03;;;;;;;5.40;1.85;;;17.50;99.90;;;;;;12462642;28;20053;-34
2023/07/11 02:45:05;;;;;;;3.83;1.90;;;17.60;99.90;;;;;;12441660;28;20045;-34
2023/07/11 02:51:07;;;;;;;3.78;1.88;;;17.60;99.90;;;;;;12478904;28;20050;-34
2023/07/11 02:57:11;;;;;;;4.15;1.88;;;17.50;99.90;;;;;;12452937;28;20173;-33
2023/07/11 03:03:13;;;;;;;5.93;2.40;;;17.40;99.90;;;;;;12481013;28;20053;-35
2023/07/11 03:09:15;;;;;;;5.53;1.83;;;17.40;99.90;;;;;;12449452;28;20053;-34
2023/07/11 03:15:16;;;;;;;4.75;1.60;;;17.20;99.90;;;;;;12482299;28;20504;-33
2023/07/11 03:21:18;;;;;;;6.10;1.95;;;17.20;99.90;;;;;;12474108;28;20046;-35
2023/07/11 03:27:20;;;;;;;4.57;2.08;;;16.90;99.90;;;;;;12457130;28;20050;-34
2023/07/11 03:33:22;;;;;;;4.38;1.73;;;17.10;99.90;;;;;;12466391;28;20509;-34
2023/07/11 03:39:24;;;;;;;7.50;2.90;;;17.10;99.90;;;;;;12479209;28;20053;-35
2023/07/11 03:45:26;;;;;;;7.38;2.92;;;17.00;99.90;;;;;;12458583;28;20041;-34
2023/07/11 03:51:28;;;;;;;9.00;2.45;;;17.20;99.90;;;;;;12454196;28;20038;-35
2023/07/11 03:57:30;;;;;;;8.32;2.53;;;17.20;99.90;;;;;;12439183;28;20402;-34
2023/07/11 04:03:32;;;;;;;7.28;2.22;;;17.30;99.90;;;;;;12457250;28;20056;-35
2023/07/11 04:09:34;;;;;;;6.15;2.47;;;17.20;99.90;;;;;;12450813;28;20093;-35
2023/07/11 04:15:36;;;;;;;5.72;2.28;;;17.40;99.90;;;;;;12469055;28;20060;-34
2023/07/11 04:21:38;;;;;;;6.20;1.90;;;18.60;99.90;;;;;;12460927;28;20484;-35
2023/07/11 04:27:40;;;;;;;9.25;2.53;;;20.10;99.90;;;;;;12420942;28;20097;-34
2023/07/11 04:33:41;;;;;;;8.80;1.90;;;20.00;99.90;;;;;;12449838;28;20482;-35
2023/07/11 04:39:43;;;;;;;4.20;1.67;;;19.40;99.90;;;;;;12462200;28;20128;-34
2023/07/11 04:45:45;;;;;;;8.98;1.95;;;19.70;99.90;;;;;;12449238;28;20440;-35
2023/07/11 04:51:50;;;;;;;6.53;3.05;;;20.00;99.90;;;;;;12440127;28;20532;-35
2023/07/11 04:57:52;;;;;;;7.72;1.73;;;20.60;99.90;;;;;;12466347;28;20058;-35
2023/07/11 05:03:54;;;;;;;3.05;1.40;;;20.90;99.90;;;;;;12448307;28;20631;-33
2023/07/11 05:09:56;;;;;;;6.47;1.58;;;20.70;99.90;;;;;;12466125;28;20124;-34
2023/07/11 05:16:07;;;;;;;6.55;2.03;;;20.70;99.90;;;;;;12475547;28;20048;-34
2023/07/11 05:22:09;;;;;;;6.07;1.70;;;20.60;99.90;;;;;;12447500;28;20506;-35
2023/07/11 05:28:13;;;;;;;5.35;1.83;;;20.40;99.90;;;;;;12465460;28;20095;-34
2023/07/11 05:34:15;;;;;;;3.78;1.60;;;20.40;99.90;;;;;;12431267;28;20244;-35
2023/07/11 05:40:17;;;;;;;4.68;1.65;;;20.20;99.90;;;;;;12443350;28;20179;-35
2023/07/11 05:46:19;;;;;;;5.68;2.17;;;20.60;99.90;;;;;;12458289;28;20037;-35
2023/07/11 05:52:20;;;;;;;7.30;2.83;;;20.70;99.90;;;;;;12467193;28;20045;-35
2023/07/11 05:58:23;;;;;;;6.07;1.85;;;20.80;99.90;;;;;;12458751;28;20144;-35
2023/07/11 06:04:25;;;;;;;5.00;1.65;;;20.90;99.90;;;;;;12440551;28;20183;-35
2023/07/11 06:10:28;;;;;;;5.20;1.63;;;21.00;99.90;;;;;;12438689;28;20209;-34
2023/07/11 06:16:30;;;;;;;4.32;1.60;;;21.10;99.90;;;;;;12466709;28;20100;-35
2023/07/11 06:22:32;;;;;;;4.10;1.73;;;21.30;99.90;;;;;;12447834;28;20098;-35
2023/07/11 06:28:33;;;;;;;4.68;1.58;;;21.40;99.90;;;;;;12432373;28;20193;-35
2023/07/11 06:34:39;;;;;;;6.15;1.90;;;21.60;99.90;;;;;;12451778;28;20195;-35
2023/07/11 06:40:49;;;;;;;4.35;1.85;;;22.00;99.90;;;;;;12459881;28;20081;-35
2023/07/11 06:46:51;;;;;;;7.22;1.80;;;22.10;99.90;;;;;;12451956;28;20045;-35
2023/07/11 06:52:53;;;;;;;6.95;1.80;;;22.30;99.90;;;;;;12479762;28;20490;-35
2023/07/11 06:58:55;;;;;;;4.57;1.70;;;22.60;99.90;;;;;;12451618;28;20093;-35
2023/07/11 07:04:57;;;;;;;5.10;2.05;;;22.50;99.90;;;;;;12437372;28;20063;-35
2023/07/11 07:10:59;;;;;;;3.88;1.83;;;22.40;99.90;;;;;;12455890;28;20092;-35
2023/07/11 07:17:02;;;;;;;7.75;2.45;;;22.60;99.90;;;;;;12477497;28;20943;-35
2023/07/11 07:23:05;;;;;;;5.28;2.03;;;22.70;99.90;;;;;;12462372;28;20057;-34
2023/07/11 07:29:07;;;;;;;4.05;2.17;;;22.90;99.90;;;;;;12459109;28;20148;-35
2023/07/11 07:35:08;;;;;;;5.57;2.17;;;23.20;99.90;;;;;;12461548;28;20208;-35
2023/07/11 07:41:10;;;;;;;4.47;1.85;;;23.10;99.90;;;;;;12461591;28;20216;-34
2023/07/11 07:47:12;;;;;;;5.45;2.20;;;23.30;99.90;;;;;;12466529;28;20478;-35
2023/07/11 07:53:15;;;;;;;6.32;2.22;;;23.30;99.90;;;;;;12467469;28;20132;-35
2023/07/11 07:59:17;;;;;;;;;;;23.40;99.90;;;;;;12474063;28;20485;-35
2023/07/11 08:05:20;;;;;;;3.35;1.77;;;23.60;99.90;;;;;;12468675;28;19922;-35
2023/07/11 08:11:22;;;;;;;4.22;2.00;;;23.80;99.90;;;;;;12471254;28;20052;-35
2023/07/11 08:17:24;;;;;;;4.68;2.08;;;23.90;99.90;;;;;;12463421;28;20410;-35
2023/07/11 08:23:27;;;;;;;7.82;2.25;;;23.90;99.90;;;;;;12450168;28;20054;-36
2023/07/11 08:29:29;;;;;;;6.07;2.23;;;24.10;99.90;;;;;;12453964;28;20441;-35
2023/07/11 08:35:31;;;;;;;5.10;2.60;;;24.20;99.90;;;;;;12453653;28;20297;-35
2023/07/11 08:41:39;;;;;;;3.90;2.20;;;24.30;99.90;;;;;;12466573;28;20077;-35
2023/07/11 08:47:46;;;;;;;5.80;2.60;;;24.60;99.90;;;;;;12460805;28;20061;-35
2023/07/11 08:54:05;;;;;;;4.38;2.30;;;24.70;99.90;;;;;;12474454;28;20146;-35
2023/07/11 09:00:26;;;;;;;3.83;2.03;;;24.90;99.90;;;;;;12449525;28;20163;-36
2023/07/11 09:06:36;;;;;;;5.50;2.30;;;25.20;99.90;;;;;;12420137;28;20046;-35
2023/07/11 09:12:52;;;;;;;4.13;2.20;;;25.40;99.90;;;;;;12485686;28;20052;-36
2023/07/11 09:19:34;;;;;;;4.68;2.20;;;25.60;99.90;;;;;;12471258;28;20072;-35
2023/07/11 09:25:40;;;;;;;5.10;2.35;;;25.90;99.90;;;;;;12439665;28;20113;-36
2023/07/11 09:31:50;;;;;;;6.93;2.47;;;26.20;99.90;;;;;;12436196;28;20049;-35
2023/07/11 09:38:06;;;;;;;5.25;2.20;;;26.60;99.90;;;;;;12451601;28;20049;-36
2023/07/11 09:44:11;;;;;;;3.95;2.20;;;26.90;99.90;;;;;;12441197;28;20058;-36
2023/07/11 09:50:36;;;;;;;4.00;2.33;;;27.30;99.90;;;;;;12433052;28;20444;-36
2023/07/11 09:56:48;;;;;;;;;;;27.40;99.90;;;;;;12462689;28;20054;-35
2023/07/11 10:02:51;;;;;;;8.30;2.53;;;27.70;99.90;;;;;;12441899;28;19968;-36
2023/07/11 10:08:53;;;;;;;5.97;2.47;;;28.00;99.90;;;;;;12438938;28;20053;-36
2023/07/11 10:15:01;;;;;;;6.73;2.77;;;28.10;99.90;;;;;;12507446;28;20445;-36
2023/07/11 10:21:17;;;;;;;3.47;2.13;;;28.30;99.90;;;;;;12503034;28;20088;-34
2023/07/11 10:27:33;;;;;;;5.80;2.20;;;27.70;99.90;;;;;;12493059;28;20049;-36
2023/07/11 10:33:49;;;;;;;4.63;2.10;;;27.80;99.90;;;;;;12515076;28;20057;-36
2023/07/11 10:40:10;;;;;;;10.75;2.55;;;28.10;99.90;;;;;;12516853;28;20048;-34
2023/07/11 10:46:42;;;;;;;4.60;2.30;;;28.50;99.90;;;;;;12492435;28;20056;-36
2023/07/11 10:52:49;;;;;;;4.05;2.45;;;28.40;99.90;;;;;;12517965;28;20064;-34
2023/07/11 10:58:53;;;;;;;7.35;2.88;;;28.80;99.90;;;;;;12507832;28;20057;-35
2023/07/11 11:05:24;;;;;;;5.63;2.67;;;28.60;99.90;;;;;;12512211;28;20041;-34
2023/07/11 11:11:30;;;;;;;4.63;2.53;;;28.60;99.90;;;;;;12512324;28;20040;-35
2023/07/11 11:18:03;;;;;;;7.28;2.38;;;28.50;99.90;;;;;;12525507;28;20050;-34
2023/07/11 11:24:22;;;;;;;5.63;3.35;;;28.30;99.90;;;;;;12503882;28;20084;-35
2023/07/11 11:30:49;;;;;;;5.53;2.60;;;28.40;99.90;;;;;;12520848;28;20049;-35
2023/07/11 11:36:57;;;;;;;8.88;3.03;;;28.80;99.90;;;;;;12519157;28;20187;-34
2023/07/11 11:43:03;;;;;;;4.20;2.75;;;28.90;99.90;;;;;;12536165;28;20041;-34
2023/07/11 11:49:19;;;;;;;4.60;2.80;;;28.90;99.90;;;;;;12528548;28;20065;-34
2023/07/11 11:55:39;;;;;;;6.37;2.87;;;28.80;99.90;;;;;;12511409;28;20057;-35
2023/07/11 12:01:45;;;;;;;5.03;2.70;;;29.00;99.90;;;;;;12491137;28;20739;-35
2023/07/11 12:08:23;;;;;;;5.50;2.60;;;28.70;99.90;;;;;;12513967;28;20496;-34
2023/07/11 12:14:28;;;;;;;4.15;2.53;;;28.00;99.90;;;;;;12521850;28;20048;-35
2023/07/11 12:20:29;;;;;;;8.43;2.63;;;28.30;99.90;;;;;;12506069;28;20412;-36
2023/07/11 12:26:33;;;;;;;6.88;3.03;;;28.40;99.90;;;;;;12533637;28;20055;-36
2023/07/11 12:32:48;;;;;;;9.82;3.17;;;28.90;99.90;;;;;;12498203;28;20053;-36
2023/07/11 12:39:27;;;;;;;4.65;2.88;;;29.00;99.90;;;;;;12511906;28;20045;-36
2023/07/11 12:45:37;;;;;;;6.47;2.78;;;29.10;99.90;;;;;;12511552;28;20325;-35
2023/07/11 12:51:39;;;;;;;6.40;3.03;;;28.80;99.90;;;;;;12508745;28;20050;-35
2023/07/11 12:57:45;;;;;;;9.00;3.10;;;28.60;99.90;;;;;;12526059;28;20057;-36
2023/07/11 13:03:47;;;;;;;4.57;2.97;;;28.60;99.90;;;;;;12493277;28;20050;-35
2023/07/11 13:09:56;;;;;;;6.35;2.92;;;28.80;99.90;;;;;;12509683;28;20049;-35
2023/07/11 13:16:02;;;;;;;8.05;3.00;;;28.60;99.90;;;;;;12512975;28;20049;-35
2023/07/11 13:22:04;;;;;;;5.03;2.78;;;28.60;99.90;;;;;;12511870;28;20044;-35
2023/07/11 13:28:24;;;;;;;6.43;3.10;;;28.90;99.90;;;;;;12498779;28;20985;-35
2023/07/11 13:34:31;;;;;;;7.13;3.10;;;29.30;99.90;;;;;;12490096;28;20057;-35
2023/07/11 13:40:39;;;;;;;6.95;2.80;;;29.20;99.90;;;;;;12506828;28;20132;-35
2023/07/11 13:46:43;;;;;;;6.45;2.80;;;29.40;99.90;;;;;;12511911;28;20053;-35
2023/07/11 13:52:53;;;;;;;4.03;2.55;;;29.50;99.90;;;;;;12511943;28;20056;-35
2023/07/11 13:58:55;;;;;;;9.85;3.15;;;29.50;99.90;;;;;;12507566;28;20123;-35
2023/07/11 14:04:58;;;;;;;4.82;2.72;;;29.60;99.90;;;;;;12503129;28;20051;-35
2023/07/11 14:11:04;;;;;;;5.55;2.78;;;29.50;99.90;;;;;;12519962;28;20073;-35
2023/07/11 14:17:14;;;;;;;6.72;2.83;;;29.50;99.90;;;;;;12517545;28;20095;-35
2023/07/11 14:23:27;;;;;;;6.07;2.70;;;29.60;99.90;;;;;;12516767;28;20049;-35
2023/07/11 14:29:32;;;;;;;6.20;2.50;;;29.70;99.90;;;;;;12509596;28;20517;-35
2023/07/11 14:35:34;;;;;;;5.80;2.80;;;29.70;99.90;;;;;;12508393;28;20600;-35
2023/07/11 14:41:37;;;;;;;8.45;2.83;;;29.70;99.90;;;;;;12515995;28;20075;-36
2023/07/11 14:47:52;;;;;;;7.07;2.90;;;29.60;99.90;;;;;;12493100;28;20052;-35
2023/07/11 14:53:54;;;;;;;5.57;3.03;;;29.60;99.90;;;;;;12500538;28;20048;-36
2023/07/11 14:59:58;;;;;;;7.90;3.22;;;29.50;99.90;;;;;;12506023;28;20489;-35
2023/07/11 15:06:00;;;;;;;7.22;3.45;;;29.50;99.90;;;;;;12498484;28;20044;-35
2023/07/11 15:12:24;;;;;;;4.73;2.83;;;29.70;99.90;;;;;;12516686;28;20052;-35
2023/07/11 15:18:28;;;;;;;8.52;3.70;;;29.70;99.90;;;;;;12501835;28;20136;-35
2023/07/11 15:24:35;;;;;;;5.80;3.08;;;29.60;99.90;;;;;;12514192;28;20060;-35
2023/07/11 15:30:40;;;;;;;5.45;3.40;;;29.70;99.90;;;;;;12518043;28;20041;-35
2023/07/11 15:36:42;;;;;;;7.93;3.33;;;29.80;99.90;;;;;;12512096;28;20140;-35
2023/07/11 15:42:45;;;;;;;6.30;3.70;;;29.80;99.90;;;;;;12506279;28;20054;-35
2023/07/11 15:48:47;;;;;;;;;;;29.80;99.90;;;;;;12502908;28;20049;-35
2023/07/11 15:54:49;;;;;;;6.05;3.50;;;29.80;99.90;;;;;;12504599;28;20311;-35
2023/07/11 16:00:51;;;;;;;6.78;3.85;;;30.00;99.90;;;;;;12503375;28;20045;-36
2023/07/11 16:06:53;;;;;;;5.45;3.58;;;30.40;99.90;;;;;;12498391;28;20049;-36
2023/07/11 16:12:56;;;;;;;8.35;4.22;;;30.20;99.90;;;;;;12524478;28;20067;-36
2023/07/11 16:18:58;;;;;;;8.10;4.10;;;30.20;99.90;;;;;;12524228;28;20057;-36
2023/07/11 16:24:59;;;;;;;6.47;4.43;;;30.40;99.90;;;;;;12516859;28;20637;-35
2023/07/11 16:31:04;;;;;;;13.15;3.90;;;30.30;99.90;;;;;;12512600;28;20053;-37
2023/07/11 16:37:19;;;;;;;9.52;3.90;;;30.30;99.90;;;;;;12501703;28;20092;-36
2023/07/11 16:43:28;;;;;;;7.20;3.80;;;30.30;99.90;;;;;;12523868;28;20113;-38
2023/07/11 16:49:31;;;;;;;8.68;4.05;;;30.40;99.90;;;;;;12494375;28;20087;-36
2023/07/11 16:55:32;;;;;;;;;;;30.60;99.90;;;;;;12504955;28;20037;-36
2023/07/11 17:01:34;;;;;;;7.83;4.27;;;30.60;99.90;;;;;;12527125;28;19921;-36
2023/07/11 17:07:37;;;;;;;8.30;4.28;;;30.50;99.90;;;;;;12504107;28;20049;-36
2023/07/11 17:13:40;;;;;;;6.50;3.88;;;30.70;99.90;;;;;;12523839;28;20037;-36
2023/07/11 17:19:41;;;;;;;10.50;4.45;;;31.00;99.90;;;;;;12516121;28;20060;-36
2023/07/11 17:25:45;;;;;;;7.10;4.13;;;30.90;99.90;;;;;;12488701;28;20059;-36
2023/07/11 17:31:47;;;;;;;8.23;4.32;;;30.60;99.90;;;;;;12501342;28;20060;-36
2023/07/11 17:37:49;;;;;;;7.05;4.05;;;30.90;99.90;;;;;;12501188;28;20089;-36
2023/07/11 17:43:51;;;;;;;6.35;4.40;;;30.80;99.90;;;;;;12511136;28;20064;-36
2023/07/11 17:50:21;;;;;;;7.18;4.45;;;30.90;99.90;;;;;;12491610;28;20049;-37
2023/07/11 17:56:23;;;;;;;9.63;4.07;;;31.20;99.90;;;;;;12464692;28;20597;-37
2023/07/11 18:02:29;;;;;;;8.52;3.97;;;31.20;99.90;;;;;;12501745;28;20443;-37
2023/07/11 18:08:45;;;;;;;5.90;4.10;;;31.30;99.90;;;;;;12481110;28;20057;-37
2023/07/11 18:14:47;;;;;;;;;;;31.20;99.90;;;;;;12493000;28;20512;-36
2023/07/11 18:20:50;;;;;;;7.93;4.30;;;30.40;99.90;;;;;;12516946;28;19976;-35
2023/07/11 18:26:52;;;;;;;9.90;4.72;;;29.90;99.90;;;;;;12496333;28;20300;-37
2023/07/11 18:32:54;;;;;;;10.93;4.38;;;29.50;99.90;;;;;;12494449;28;20498;-36
2023/07/11 18:38:56;;;;;;;7.93;4.75;;;29.20;99.90;;;;;;12517390;28;20195;-36
2023/07/11 18:44:59;;;;;;;8.90;4.70;;;28.80;99.90;;;;;;12505732;28;20052;-36
2023/07/11 18:51:01;;;;;;;8.93;4.50;;;28.50;99.90;;;;;;12498243;28;20502;-36
2023/07/11 18:57:03;;;;;;;10.30;4.38;;;28.10;99.90;;;;;;12506011;28;20604;-35
2023/07/11 19:03:08;;;;;;;8.65;4.82;;;27.80;99.90;;;;;;12535335;28;20049;-35
2023/07/11 19:09:11;;;;;;;8.15;4.13;;;27.60;99.90;;;;;;12517779;28;20052;-35
2023/07/11 19:15:16;;;;;;;7.75;5.03;;;27.30;99.90;;;;;;12522912;28;20049;-35
2023/07/11 19:21:18;;;;;;;7.75;4.40;;;27.00;99.90;;;;;;12521319;28;20489;-36
2023/07/11 19:27:20;;;;;;;9.23;4.87;;;26.70;99.90;;;;;;12511369;28;20037;-36
2023/07/11 19:33:24;;;;;;;12.40;4.83;;;26.40;99.90;;;;;;12496846;28;20903;-35
2023/07/11 19:39:26;;;;;;;9.15;4.60;;;26.40;99.90;;;;;;12528834;28;20060;-35
2023/07/11 19:45:35;;;;;;;8.27;4.90;;;26.20;99.90;;;;;;12513768;28;20053;-34
2023/07/11 19:51:42;;;;;;;9.97;5.00;;;26.00;99.90;;;;;;12510417;28;20404;-35
2023/07/11 19:57:44;;;;;;;8.98;5.35;;;25.90;99.90;;;;;;12528864;28;20224;-35
2023/07/11 20:03:46;;;;;;;8.90;4.78;;;25.80;99.90;;;;;;12516134;28;20060;-35
2023/07/11 20:09:48;;;;;;;10.35;4.35;;;25.90;99.90;;;;;;12529035;28;20044;-35
2023/07/11 20:15:56;;;;;;;8.45;4.38;;;25.80;99.90;;;;;;12523567;28;20052;-35
2023/07/11 20:21:58;;;;;;;6.38;4.40;;;25.80;99.90;;;;;;12505041;28;20505;-35
2023/07/11 20:28:19;;;;;;;9.52;4.70;;;25.60;99.90;;;;;;12516690;28;20072;-35
2023/07/11 20:34:21;;;;;;;8.40;4.38;;;25.20;99.90;;;;;;12509152;28;20058;-35
2023/07/11 20:40:28;;;;;;;10.80;5.13;;;25.20;99.90;;;;;;12512155;28;20508;-35
2023/07/11 20:46:30;;;;;;;9.73;5.18;;;25.20;99.90;;;;;;12523898;28;20089;-35
2023/07/11 20:52:33;;;;;;;9.52;4.57;;;24.90;99.90;;;;;;12519356;28;20041;-35
2023/07/11 20:58:34;;;;;;;7.07;4.03;;;25.10;99.90;;;;;;12515232;28;20068;-35
2023/07/11 21:04:36;;;;;;;8.95;5.03;;;25.10;99.90;;;;;;12505740;28;20464;-35
2023/07/11 21:10:40;;;;;;;10.30;5.10;;;25.00;99.90;;;;;;12513630;28;20048;-35
2023/07/11 21:16:42;;;;;;;8.60;4.40;;;25.00;99.90;;;;;;12514400;28;20453;-35
2023/07/11 21:22:44;;;;;;;8.90;4.75;;;25.00;99.90;;;;;;12512301;28;20057;-34
2023/07/11 21:28:46;;;;;;;8.93;4.45;;;24.80;99.90;;;;;;12501341;28;20076;-35
2023/07/11 21:34:48;;;;;;;7.03;4.33;;;24.70;99.90;;;;;;12493226;28;20505;-36
2023/07/11 21:40:54;;;;;;;6.88;4.43;;;24.70;99.90;;;;;;12511618;28;20049;-35
2023/07/11 21:46:55;;;;;;;10.75;4.75;;;24.60;99.90;;;;;;12508593;28;20045;-35
2023/07/11 21:53:00;;;;;;;8.88;4.88;;;24.40;99.90;;;;;;12506520;28;20053;-35
2023/07/11 21:59:02;;;;;;;8.55;4.65;;;24.20;99.90;;;;;;12506951;28;20071;-35
2023/07/11 22:05:04;;;;;;;7.13;4.63;;;24.10;99.90;;;;;;12495536;28;20349;-35
2023/07/11 22:11:10;;;;;;;7.55;4.45;;;23.80;99.90;;;;;;12523029;28;20056;-35
2023/07/11 22:17:12;;;;;;;7.38;4.55;;;23.70;99.90;;;;;;12514213;28;20045;-34
2023/07/11 22:23:18;;;;;;;7.28;4.75;;;23.80;99.90;;;;;;12492271;28;20053;-35
2023/07/11 22:29:20;;;;;;;8.63;5.00;;;23.80;99.90;;;;;;12514706;28;20065;-34
2023/07/11 22:35:24;;;;;;;6.88;4.65;;;23.70;99.90;;;;;;12507998;28;20056;-35
2023/07/11 22:41:26;;;;;;;6.40;4.35;;;23.40;99.90;;;;;;12504359;28;20046;-35
2023/07/11 22:47:28;;;;;;;6.68;4.25;;;23.30;99.90;;;;;;12515773;28;20048;-35
2023/07/11 22:53:30;;;;;;;10.77;5.70;;;23.50;99.90;;;;;;12497245;28;20053;-34
2023/07/11 22:59:33;;;;;;;8.43;5.10;;;23.30;99.90;;;;;;12521623;28;20390;-35
2023/07/11 23:05:35;;;;;;;9.53;4.70;;;22.90;99.90;;;;;;12498429;28;20049;-34
2023/07/11 23:11:37;;;;;;;8.18;4.88;;;23.30;99.90;;;;;;12504225;28;20049;-34
2023/07/11 23:17:38;;;;;;;7.30;4.90;;;23.20;99.90;;;;;;12536604;28;20147;-35
2023/07/11 23:23:40;;;;;;;8.23;4.78;;;22.50;99.90;;;;;;12523516;28;20053;-34
2023/07/11 23:29:42;;;;;;;8.90;5.35;;;22.20;99.90;;;;;;12520530;28;20038;-34
2023/07/11 23:35:45;;;;;;;9.20;5.80;;;22.20;99.90;;;;;;12503761;28;20076;-35
2023/07/11 23:41:47;;;;;;;8.23;5.53;;;22.40;99.90;;;;;;12513076;28;20049;-35
2023/07/11 23:47:49;;;;;;;8.20;5.50;;;22.30;99.90;;;;;;12497610;28;20478;-36
2023/07/11 23:53:51;;;;;;;8.57;5.32;;;22.50;99.90;;;;;;12526703;28;20373;-35
2023/07/11 23:59:53;;;;;;;12.50;6.30;;;22.60;99.90;;;;;;12518121;28;20107;-35
